Welcome to Northern Hawkes Bay. New Zealand.
PWS Header
      nz Flag



Hit Counter


W3C Valid W3C Valid logo


    Wairoa

Select any of the Stations below to visit their websites.










Historic Data from Weather Underground
Select the location of interest below. Wairoa is the default. Please have patience, this Data is slow to load in.
Northern Hawkes Bay Historical Data
Daily Summary for July 28, 2017 Units:  English    Metric   Both
« Previous Day
Next Day »
Daily Weekly Monthly Yearly Custom
  High: Low: Average:
Temperature: 51.1 °F 44.1 °F 48 °F
Dew Point: 49.6 °F 35.6 °F 44.2 °F
Humidity: 99% 66% 87%
Wind Speed: 24.4mph 0mph 12.2mph
Wind Gust: 37.4mph - -
Wind- - SW
Pressure: 30 in 29.6 in -
Precipitation: 0.87 in    
Historical Graphs
 
 
Tabular Data for July 28, 2017
Time Temperature Dew Point Pressure Wind Wind Speed Wind Gust Humidity Rainfall Rate (Hourly) solar
00:03 48.7 °F 47.1 °F 29.6 in Calm   1.6 mph 94% 0.05 in 0 W/m2
00:08 48.7 °F 47.1 °F 29.6 in Calm   1.6 mph 94% 0.06 in 0 W/m2
00:13 48.7 °F 47.1 °F 29.6 in Calm   0.7 mph 94% 0.05 in 0 W/m2
00:18 48.7 °F 47.1 °F 29.6 in Calm   0.7 mph 94% 0.06 in 0 W/m2
00:23 48.7 °F 47.5 °F 29.6 in Calm   0.7 mph 95% 0.06 in 0 W/m2
00:28 48.7 °F 47.5 °F 29.6 in Calm   0.7 mph 95% 0.06 in 0 W/m2
00:33 48.6 °F 47.1 °F 29.6 in Calm   0.7 mph 95% 0.07 in 0 W/m2
00:38 48.6 °F 47.1 °F 29.6 in Calm   0.7 mph 95% 0.06 in 0 W/m2
00:43 48.6 °F 47.1 °F 29.6 in NNE 0.7 mph 0.7 mph 95% 0.06 in 0 W/m2
00:48 48.6 °F 47.1 °F 29.6 in Calm   1.6 mph 95% 0.06 in 0 W/m2
00:55 48.6 °F 47.1 °F 29.6 in Calm   1.6 mph 95% 0.07 in 0 W/m2
01:00 48.6 °F 47.1 °F 29.6 in NNW 0.7 mph 2.2 mph 95% 0.07 in 0 W/m2
01:05 48.4 °F 46.9 °F 29.6 in NNW 0.7 mph 2.2 mph 95% 0.06 in 0 W/m2
01:10 48.4 °F 46.9 °F 29.6 in Calm   1.6 mph 95% 0.07 in 0 W/m2
01:15 48.4 °F 46.9 °F 29.6 in North 1.6 mph 2.2 mph 95% 0.07 in 0 W/m2
01:20 48.4 °F 47.3 °F 29.6 in NNW 3.1 mph 3.8 mph 96% 0.06 in 0 W/m2
01:25 48.2 °F 47.1 °F 29.6 in NW 1.6 mph 3.8 mph 96% 0.06 in 0 W/m2
01:30 48.2 °F 47.1 °F 29.6 in NW 2.2 mph 3.8 mph 96% 0.06 in 0 W/m2
01:35 48.2 °F 47.1 °F 29.6 in NNW 1.6 mph 3.8 mph 96% 0.05 in 0 W/m2
01:40 48 °F 47.1 °F 29.6 in Calm   3.8 mph 97% 0.05 in 0 W/m2
01:45 48 °F 47.5 °F 29.6 in Calm   2.2 mph 98% 0.04 in 0 W/m2
01:50 48 °F 47.5 °F 29.6 in NNE 0.7 mph 1.6 mph 98% 0.04 in 0 W/m2
01:55 48 °F 47.5 °F 29.6 in North 1.6 mph 2.2 mph 98% 0.02 in 0 W/m2
02:00 48 °F 47.5 °F 29.6 in North 1.6 mph 3.1 mph 98% 0.04 in 0 W/m2
02:05 47.8 °F 47.3 °F 29.6 in Calm   3.1 mph 98% 0.04 in 0 W/m2
02:10 47.8 °F 47.3 °F 29.6 in North 1.6 mph 2.2 mph 98% 0.02 in 0 W/m2
02:15 47.8 °F 47.3 °F 29.6 in North 1.6 mph 3.1 mph 98% 0.02 in 0 W/m2
02:20 47.8 °F 47.3 °F 29.6 in North 2.2 mph 3.1 mph 98% 0.02 in 0 W/m2
02:25 47.8 °F 47.7 °F 29.6 in NNW 1.6 mph 3.1 mph 99% 0.01 in 0 W/m2
02:30 47.8 °F 47.7 °F 29.6 in NNW 0.7 mph 3.1 mph 99% 0.01 in 0 W/m2
02:35 47.7 °F 47.5 °F 29.6 in NNW 0.7 mph 2.2 mph 99% 0.01 in 0 W/m2
02:40 47.5 °F 47.1 °F 29.6 in Calm   2.2 mph 99% 0.01 in 0 W/m2
02:45 47.5 °F 47.1 °F 29.6 in North 0.7 mph 1.6 mph 99% 0.01 in 0 W/m2
02:50 47.5 °F 47.1 °F 29.6 in North 0.7 mph 2.2 mph 99% 0.01 in 0 W/m2
02:55 47.5 °F 47.1 °F 29.6 in North 0.7 mph 2.2 mph 99% 0 in 0 W/m2
03:00 47.5 °F 47.1 °F 29.6 in North 1.6 mph 2.2 mph 99% 0 in 0 W/m2
03:05 47.7 °F 47.5 °F 29.6 in North 0.7 mph 3.1 mph 99% 0 in 0 W/m2
03:10 47.7 °F 47.5 °F 29.6 in NNW 0.7 mph 3.1 mph 99% 0 in 0 W/m2
03:15 47.7 °F 47.5 °F 29.6 in NNW 0.7 mph 2.2 mph 99% 0 in 0 W/m2
03:20 47.7 °F 47.5 °F 29.6 in NNW 0.7 mph 2.2 mph 99% 0 in 0 W/m2
03:22 47.7 °F 47.5 °F 29.6 in North 0.7 mph 2.2 mph 99% 0 in 0 W/m2
03:27 47.5 °F 47.1 °F 29.6 in North 0.7 mph 1.6 mph 99% 0 in 0 W/m2
03:32 47.5 °F 47.1 °F 29.6 in North 0.7 mph 1.6 mph 99% 0 in 0 W/m2
03:37 47.5 °F 47.1 °F 29.6 in North 0.7 mph 2.2 mph 99% 0 in 0 W/m2
03:42 47.5 °F 47.1 °F 29.6 in North 0.7 mph 2.2 mph 99% 0 in 0 W/m2
03:47 47.5 °F 47.1 °F 29.6 in NNW 1.6 mph 2.2 mph 99% 0 in 0 W/m2
03:52 47.5 °F 47.1 °F 29.6 in NNW 1.6 mph 3.1 mph 99% 0 in 0 W/m2
03:57 47.5 °F 47.1 °F 29.6 in NNW 0.7 mph 3.1 mph 99% 0 in 0 W/m2
04:02 47.5 °F 47.1 °F 29.6 in Calm   2.2 mph 99% 0 in 0 W/m2
04:07 47.5 °F 47.1 °F 29.6 in North 0.7 mph 2.2 mph 99% 0 in 0 W/m2
04:12 47.5 °F 47.1 °F 29.6 in NE 0.7 mph 1.6 mph 99% 0 in 0 W/m2
04:17 47.5 °F 47.1 °F 29.6 in Calm   1.6 mph 99% 0 in 0 W/m2
04:23 47.5 °F 47.1 °F 29.6 in Calm   1.6 mph 99% 0 in 0 W/m2
04:28 48.2 °F 47.8 °F 29.6 in WSW 4.5 mph 9.8 mph 99% 0 in 0 W/m2
04:33 48.7 °F 48.6 °F 29.6 in WSW 6 mph 10.7 mph 99% 0 in 0 W/m2
04:53 49.6 °F 49.5 °F 29.6 in West 12.1 mph 16.8 mph 99% 0 in 0 W/m2
04:58 49.8 °F 49.6 °F 29.6 in West 8.3 mph 16.8 mph 99% 0 in 0 W/m2
05:03 50 °F 49.3 °F 29.6 in WSW 10.7 mph 16.8 mph 97% 0 in 0 W/m2
05:08 50.2 °F 49.5 °F 29.6 in WSW 9.2 mph 15.9 mph 97% 0.01 in 0 W/m2
05:13 50.2 °F 49.5 °F 29.6 in WSW 9.8 mph 22.8 mph 97% 0.01 in 0 W/m2
05:18 50 °F 49.3 °F 29.6 in WSW 9.2 mph 22.8 mph 97% 0.01 in 0 W/m2
05:23 50 °F 49.3 °F 29.6 in WSW 10.7 mph 18.3 mph 97% 0.01 in 0 W/m2
05:28 50 °F 49.5 °F 29.6 in WSW 14.5 mph 19.7 mph 98% 0.01 in 0 W/m2
05:33 50 °F 49.5 °F 29.6 in WSW 13.6 mph 19.7 mph 98% 0.01 in 0 W/m2
05:38 50 °F 49.5 °F 29.6 in WSW 13.6 mph 19 mph 98% 0.01 in 0 W/m2
05:43 50 °F 49.3 °F 29.6 in West 17.4 mph 21.3 mph 97% 0.02 in 0 W/m2
05:48 50 °F 49.3 °F 29.6 in West 9.8 mph 21.3 mph 97% 0.02 in 0 W/m2
05:53 50 °F 48.9 °F 29.6 in WNW 14.5 mph 21.3 mph 96% 0.02 in 0 W/m2
05:58 50 °F 48.6 °F 29.6 in WSW 13 mph 21.3 mph 95% 0.02 in 0 W/m2
06:03 50.2 °F 48.7 °F 29.6 in WSW 13.6 mph 22.8 mph 95% 0.02 in 0 W/m2
06:08 50.2 °F 48.6 °F 29.6 in WSW 13.6 mph 22.8 mph 94% 0.01 in 0 W/m2
06:13 50 °F 48 °F 29.6 in WSW 9.2 mph 20.6 mph 93% 0.01 in 0 W/m2
06:18 50.2 °F 48.2 °F 29.6 in WSW 14.5 mph 20.6 mph 93% 0.01 in 0 W/m2
06:23 50.2 °F 48.2 °F 29.6 in WSW 14.5 mph 19.7 mph 93% 0.01 in 0 W/m2
06:28 50.2 °F 48 °F 29.6 in WSW 7.6 mph 18.3 mph 92% 0.01 in 0 W/m2
06:33 50.4 °F 48 °F 29.6 in WSW 14.5 mph 22.1 mph 92% 0.01 in 0 W/m2
06:38 50.4 °F 48 °F 29.6 in WSW 15.2 mph 22.8 mph 92% 0.01 in 0 W/m2
06:43 50.5 °F 48 °F 29.6 in WSW 13 mph 25.1 mph 91% 0 in 0 W/m2
06:48 50.5 °F 47.7 °F 29.6 in WSW 12.1 mph 25.1 mph 90% 0 in 0 W/m2
06:53 50.4 °F 47.8 °F 29.6 in West 14.5 mph 23.5 mph 91% 0 in 0 W/m2
06:58 50.2 °F 47.7 °F 29.6 in WSW 13 mph 25.9 mph 91% 0 in 0 W/m2
07:03 50.2 °F 48 °F 29.6 in WSW 14.5 mph 25.9 mph 92% 0 in 0 W/m2
07:08 50 °F 48 °F 29.6 in WSW 17.4 mph 26.6 mph 93% 0 in 0 W/m2
07:13 50 °F 48 °F 29.6 in SW 13 mph 26.6 mph 93% 0 in 0 W/m2
07:18 49.8 °F 48.2 °F 29.6 in SW 14.5 mph 25.9 mph 94% 0 in 0 W/m2
07:23 49.8 °F 48.4 °F 29.6 in SW 15.2 mph 25.9 mph 95% 0.01 in 0 W/m2
07:28 50 °F 48.4 °F 29.6 in WSW 11.4 mph 25.9 mph 94% 0.01 in 0 W/m2
07:33 50 °F 48.4 °F 29.6 in WSW 15.9 mph 25.9 mph 94% 0.02 in 0 W/m2
07:38 50 °F 48.4 °F 29.6 in SW 18.3 mph 25.9 mph 94% 0.04 in 0 W/m2
07:43 50 °F 48.4 °F 29.6 in WSW 13 mph 25.9 mph 94% 0.04 in 0 W/m2
07:48 50.2 °F 48.7 °F 29.6 in SW 15.2 mph 32 mph 95% 0.05 in 1 W/m2
07:53 50.4 °F 48.7 °F 29.6 in SW 15.2 mph 32 mph 94% 0.05 in 0 W/m2
07:58 50.4 °F 48.7 °F 29.6 in SW 18.3 mph 27.3 mph 94% 0.05 in 1 W/m2
08:03 50.5 °F 48.6 °F 29.7 in SW 15.9 mph 27.3 mph 93% 0.05 in 4 W/m2
08:08 50.4 °F 48 °F 29.7 in SW 19.7 mph 33.6 mph 92% 0.06 in 2 W/m2
08:13 50.5 °F 48.6 °F 29.7 in SW 16.8 mph 33.6 mph 93% 0.07 in 2 W/m2
08:18 50.2 °F 48.2 °F 29.7 in SW 18.3 mph 28.2 mph 93% 0.08 in 3 W/m2
08:23 50 °F 48 °F 29.7 in SW 19 mph 27.3 mph 93% 0.11 in 2 W/m2
08:28 49.6 °F 48.4 °F 29.7 in SW 15.9 mph 32 mph 95% 0.13 in 7 W/m2
08:33 49.6 °F 48.4 °F 29.7 in SW 13.6 mph 32 mph 95% 0.13 in 10 W/m2
08:38 49.6 °F 48.4 °F 29.7 in WSW 15.9 mph 25.9 mph 95% 0.12 in 7 W/m2
08:43 49.6 °F 48.4 °F 29.7 in WSW 20.6 mph 28.2 mph 95% 0.12 in 9 W/m2
08:48 49.6 °F 48.4 °F 29.7 in SW 13.6 mph 28.2 mph 95% 0.11 in 6 W/m2
08:53 49.6 °F 48 °F 29.7 in SW 19.7 mph 32.7 mph 94% 0.13 in 7 W/m2
08:58 49.6 °F 48 °F 29.7 in SW 19.7 mph 32.7 mph 94% 0.14 in 11 W/m2
09:03 49.6 °F 48 °F 29.7 in SW 15.9 mph 30.4 mph 94% 0.14 in 20 W/m2
09:08 49.6 °F 48 °F 29.7 in SW 14.5 mph 30.4 mph 94% 0.14 in 17 W/m2
09:13 49.6 °F 48 °F 29.7 in SW 8.3 mph 28.2 mph 94% 0.15 in 33 W/m2
09:18 49.6 °F 48 °F 29.7 in WSW 12.1 mph 28.2 mph 94% 0.14 in 31 W/m2
09:23 49.3 °F 47.7 °F 29.7 in WSW 14.5 mph 28.9 mph 94% 0.11 in 19 W/m2
09:28 48.9 °F 47.3 °F 29.7 in WSW 14.5 mph 28.9 mph 94% 0.09 in 36 W/m2
09:33 48.9 °F 47.3 °F 29.7 in WSW 15.9 mph 25.1 mph 94% 0.09 in 22 W/m2
09:38 48.7 °F 47.1 °F 29.7 in WSW 18.3 mph 32 mph 94% 0.09 in 23 W/m2
09:43 48.7 °F 47.1 °F 29.7 in WSW 16.8 mph 32 mph 94% 0.09 in 25 W/m2
09:48 48.7 °F 46.8 °F 29.7 in WSW 16.8 mph 28.9 mph 93% 0.11 in 27 W/m2
09:53 48.6 °F 46.9 °F 29.7 in WSW 12.1 mph 28.9 mph 94% 0.12 in 26 W/m2
09:58 48.9 °F 47.7 °F 29.7 in SW 14.5 mph 27.3 mph 95% 0.12 in 25 W/m2
10:03 49.1 °F 47.5 °F 29.7 in SW 15.2 mph 25.9 mph 94% 0.12 in 34 W/m2
10:08 49.6 °F 48 °F 29.7 in SW 15.2 mph 28.2 mph 94% 0.13 in 28 W/m2
10:13 49.3 °F 47.1 °F 29.7 in SW 15.9 mph 28.2 mph 92% 0.12 in 23 W/m2
10:18 48.6 °F 46.2 °F 29.7 in SW 18.3 mph 32 mph 92% 0.13 in 49 W/m2
10:23 48.4 °F 46.2 °F 29.7 in SW 17.4 mph 32 mph 92% 0.13 in 35 W/m2
10:28 48.2 °F 46.2 °F 29.7 in WSW 16.8 mph 27.3 mph 93% 0.13 in 30 W/m2
10:33 48.2 °F 46.2 °F 29.7 in WSW 14.5 mph 27.3 mph 93% 0.12 in 40 W/m2
10:38 48.6 °F 46.6 °F 29.7 in WSW 11.4 mph 25.1 mph 93% 0.13 in 44 W/m2
10:43 48.6 °F 46 °F 29.7 in West 19.7 mph 26.6 mph 91% 0.13 in 39 W/m2
10:48 48.7 °F 46.6 °F 29.7 in West 17.4 mph 27.3 mph 92% 0.11 in 41 W/m2
10:53 48.6 °F 46.2 °F 29.7 in WSW 16.8 mph 27.3 mph 92% 0.07 in 41 W/m2
10:58 48.4 °F 46.2 °F 29.7 in SW 19 mph 26.6 mph 92% 0.07 in 56 W/m2
11:03 48.4 °F 46.2 °F 29.7 in WSW 9.8 mph 25.1 mph 92% 0.07 in 52 W/m2
11:08 48.7 °F 46.6 °F 29.7 in WSW 19.7 mph 28.9 mph 92% 0.05 in 47 W/m2
11:13 49.3 °F 46.6 °F 29.7 in WSW 10.7 mph 28.9 mph 90% 0.04 in 75 W/m2
11:18 49.3 °F 46.2 °F 29.7 in WSW 16.8 mph 28.9 mph 89% 0.02 in 79 W/m2
11:23 49.1 °F 45.7 °F 29.7 in West 14.5 mph 28.2 mph 88% 0.02 in 67 W/m2
11:28 49.6 °F 45.9 °F 29.7 in West 11.4 mph 24.4 mph 87% 0.01 in 64 W/m2
11:33 49.8 °F 45.9 °F 29.7 in WSW 14.5 mph 25.1 mph 86% 0.01 in 54 W/m2
11:38 49.3 °F 45.3 °F 29.7 in WSW 18.3 mph 25.1 mph 86% 0 in 62 W/m2
11:43 49.3 °F 45.7 °F 29.7 in WSW 19 mph 25.9 mph 87% 0 in 94 W/m2
11:48 48.7 °F 45.3 °F 29.7 in WSW 15.2 mph 25.9 mph 88% 0.01 in 50 W/m2
11:53 48.7 °F 45.7 °F 29.7 in WSW 11.4 mph 24.4 mph 89% 0.02 in 66 W/m2
11:58 48.6 °F 45.5 °F 29.8 in SW 16.8 mph 24.4 mph 89% 0.02 in 74 W/m2
12:03 48.7 °F 45.3 °F 29.7 in SW 17.4 mph 24.4 mph 88% 0.02 in 84 W/m2
12:08 48.7 °F 45.3 °F 29.8 in WSW 15.9 mph 24.4 mph 88% 0.02 in 78 W/m2
12:13 48.6 °F 45 °F 29.8 in WSW 15.2 mph 26.6 mph 87% 0.04 in 82 W/m2
12:18 48.4 °F 44.8 °F 29.7 in WSW 15.2 mph 26.6 mph 87% 0.04 in 67 W/m2
12:23 48.4 °F 44.8 °F 29.8 in West 14.5 mph 26.6 mph 87% 0.04 in 58 W/m2
12:28 48.6 °F 45.1 °F 29.7 in SW 16.8 mph 25.9 mph 88% 0.04 in 40 W/m2
12:33 48.6 °F 45 °F 29.7 in SW 16.8 mph 25.1 mph 87% 0.05 in 50 W/m2
12:38 48.4 °F 44.4 °F 29.8 in WSW 14.5 mph 25.1 mph 86% 0.06 in 45 W/m2
12:43 48 °F 44.6 °F 29.8 in SW 16.8 mph 25.1 mph 88% 0.08 in 52 W/m2
12:48 48 °F 44.2 °F 29.8 in SW 9.8 mph 25.1 mph 87% 0.07 in 50 W/m2
12:53 48.2 °F 44.2 °F 29.8 in WSW 14.5 mph 25.9 mph 86% 0.07 in 54 W/m2
12:58 48 °F 44.6 °F 29.8 in WSW 16.8 mph 27.3 mph 88% 0.08 in 36 W/m2
13:03 48.2 °F 44.2 °F 29.8 in WSW 13.6 mph 27.3 mph 86% 0.08 in 65 W/m2
13:08 48.9 °F 45.1 °F 29.8 in WSW 15.9 mph 27.3 mph 87% 0.09 in 78 W/m2
13:13 49.6 °F 45.3 °F 29.8 in SW 11.4 mph 30.4 mph 85% 0.08 in 70 W/m2
13:18 49.6 °F 45 °F 29.7 in SW 23.5 mph 32.7 mph 84% 0.08 in 73 W/m2
13:23 49.5 °F 44.8 °F 29.8 in SW 16.8 mph 37.4 mph 84% 0.08 in 81 W/m2
13:28 49.1 °F 44.4 °F 29.8 in SW 19.7 mph 37.4 mph 84% 0.09 in 32 W/m2
13:33 48.9 °F 44.6 °F 29.8 in SW 17.4 mph 31.1 mph 85% 0.09 in 74 W/m2
13:38 48.9 °F 44.6 °F 29.8 in SW 15.9 mph 31.1 mph 85% 0.08 in 69 W/m2
13:43 49.1 °F 44.4 °F 29.8 in SW 19 mph 31.1 mph 84% 0.06 in 87 W/m2
13:48 49.5 °F 44.8 °F 29.8 in SW 13 mph 32.7 mph 84% 0.06 in 110 W/m2
13:53 49.6 °F 45 °F 29.8 in SW 17.4 mph 32.7 mph 84% 0.05 in 92 W/m2
13:58 49.6 °F 44.8 °F 29.8 in SW 16.8 mph 32.7 mph 83% 0.04 in 53 W/m2
14:03 49.3 °F 44.1 °F 29.8 in SW 16.8 mph 32.7 mph 82% 0.04 in 65 W/m2
14:08 49.5 °F 44.4 °F 29.8 in SSW 19.7 mph 28.9 mph 83% 0.04 in 55 W/m2
14:13 50.2 °F 43.3 °F 29.8 in SSW 14.5 mph 29.8 mph 77% 0.04 in 77 W/m2
14:18 50.5 °F 43.5 °F 29.8 in SW 14.5 mph 29.8 mph 77% 0.04 in 67 W/m2
14:23 50.4 °F 43.9 °F 29.8 in SW 11.4 mph 27.3 mph 78% 0.04 in 76 W/m2
14:28 50.4 °F 43.9 °F 29.8 in SW 19 mph 26.6 mph 78% 0.02 in 70 W/m2
14:33 50.2 °F 45.1 °F 29.8 in SSW 15.2 mph 27.3 mph 83% 0.01 in 85 W/m2
14:38 50.7 °F 43.2 °F 29.8 in SW 15.9 mph 31.1 mph 75% 0.01 in 76 W/m2
14:43 50.4 °F 42.4 °F 29.8 in SW 13.6 mph 31.1 mph 74% 0.01 in 63 W/m2
14:48 49.5 °F 43 °F 29.8 in WSW 13 mph 30.4 mph 78% 0.01 in 52 W/m2
14:53 50.2 °F 42.6 °F 29.8 in SW 19.7 mph 30.4 mph 75% 0.01 in 61 W/m2
14:58 51.1 °F 40.8 °F 29.8 in SW 15.9 mph 30.4 mph 68% 0.01 in 65 W/m2
15:03 51.1 °F 40.1 °F 29.8 in SSW 15.9 mph 29.8 mph 66% 0.01 in 46 W/m2
15:08 50.9 °F 41.5 °F 29.8 in SW 19.7 mph 29.8 mph 70% 0 in 56 W/m2
15:13 51.1 °F 41.5 °F 29.8 in SW 14.5 mph 28.9 mph 70% 0 in 66 W/m2
15:18 50.5 °F 42.3 °F 29.8 in SW 17.4 mph 28.9 mph 73% 0 in 68 W/m2
15:23 50.9 °F 42.3 °F 29.8 in SW 20.6 mph 27.3 mph 72% 0 in 75 W/m2
15:28 50.7 °F 40.8 °F 29.8 in SSW 8.3 mph 27.3 mph 69% 0 in 70 W/m2
15:33 50.5 °F 43 °F 29.8 in SW 19.7 mph 26.6 mph 75% 0 in 72 W/m2
15:38 50.4 °F 44.1 °F 29.8 in SW 21.3 mph 26.6 mph 79% 0 in 62 W/m2
15:43 50 °F 43.2 °F 29.8 in SW 17.4 mph 29.8 mph 77% 0 in 36 W/m2
15:48 47.8 °F 42.1 °F 29.8 in SSW 21.3 mph 29.8 mph 80% 0.01 in 26 W/m2
15:53 47.7 °F 42.1 °F 29.8 in SSW 13 mph 26.6 mph 81% 0.01 in 7 W/m2
15:58 48.2 °F 43.5 °F 29.8 in SSW 12.1 mph 28.9 mph 84% 0.04 in 22 W/m2
16:03 47.3 °F 43 °F 29.8 in SSW 13.6 mph 28.9 mph 85% 0.05 in 21 W/m2
16:08 48.6 °F 43 °F 29.8 in SSW 17.4 mph 28.2 mph 81% 0.05 in 40 W/m2
16:13 48.9 °F 42.1 °F 29.8 in SSW 15.2 mph 28.2 mph 77% 0.05 in 47 W/m2
16:18 48.9 °F 42.4 °F 29.8 in SSW 14.5 mph 28.2 mph 78% 0.05 in 36 W/m2
16:23 48.7 °F 41.9 °F 29.8 in SW 19.7 mph 28.2 mph 77% 0.05 in 24 W/m2
16:28 48.7 °F 41.9 °F 29.8 in SW 19.7 mph 29.8 mph 77% 0.05 in 12 W/m2
16:34 47.7 °F 41.2 °F 29.8 in SSW 15.2 mph 35.8 mph 78% 0.06 in 13 W/m2
16:39 48.2 °F 41.4 °F 29.8 in SSW 13 mph 35.8 mph 77% 0.06 in 18 W/m2
16:44 48.7 °F 40.5 °F 29.8 in SSW 13.6 mph 25.9 mph 73% 0.05 in 12 W/m2
16:49 48.6 °F 41 °F 29.9 in SSW 15.9 mph 26.6 mph 75% 0.05 in 4 W/m2
16:54 46.9 °F 40.5 °F 29.9 in SSW 15.2 mph 29.8 mph 78% 0.06 in 0 W/m2
17:00 46.4 °F 40.6 °F 29.9 in SSW 10.7 mph 29.8 mph 80% 0.05 in 0 W/m2
17:05 47.7 °F 40.5 °F 29.9 in SW 11.4 mph 29.8 mph 76% 0.05 in 0 W/m2
17:10 48.7 °F 40.8 °F 29.9 in SSW 16.8 mph 27.3 mph 74% 0.05 in 0 W/m2
17:15 48.2 °F 41 °F 29.9 in SW 15.9 mph 28.2 mph 76% 0.05 in 0 W/m2
17:20 47.5 °F 41 °F 29.9 in SW 19 mph 28.2 mph 78% 0.05 in 0 W/m2
17:25 47.3 °F 40.8 °F 29.9 in SW 14.5 mph 25.1 mph 78% 0.05 in 0 W/m2
17:30 47.5 °F 41.4 °F 29.9 in SW 18.3 mph 25.9 mph 79% 0.04 in 0 W/m2
17:35 46.8 °F 40.3 °F 29.9 in SW 24.4 mph 30.4 mph 78% 0.04 in 0 W/m2
17:40 46.4 °F 39.9 °F 29.9 in SW 15.2 mph 30.4 mph 78% 0.04 in 0 W/m2
17:45 46.9 °F 40.5 °F 29.9 in SW 13 mph 27.3 mph 78% 0.04 in 0 W/m2
17:50 47.1 °F 40.8 °F 29.9 in SW 14.5 mph 28.2 mph 79% 0.04 in 0 W/m2
17:55 46.6 °F 40.5 °F 29.9 in SW 9.8 mph 28.2 mph 79% 0.02 in 0 W/m2
18:00 45.9 °F 40.6 °F 29.9 in SSW 5.4 mph 28.2 mph 82% 0.02 in 0 W/m2
18:05 45.9 °F 41.4 °F 29.9 in SSW 14.5 mph 22.8 mph 84% 0.04 in 0 W/m2
18:10 46.4 °F 41.5 °F 29.9 in SSW 12.1 mph 23.5 mph 83% 0.04 in 0 W/m2
18:15 46.2 °F 40.6 °F 29.9 in SSW 11.4 mph 23.5 mph 81% 0.06 in 0 W/m2
18:20 45.7 °F 40.3 °F 29.9 in SW 17.4 mph 29.8 mph 81% 0.07 in 0 W/m2
18:30 47.7 °F 37.9 °F 29.9 in SW 13 mph 30.4 mph 69% 0.07 in 0 W/m2
18:35 47.8 °F 39.9 °F 29.9 in SW 19.7 mph 31.1 mph 74% 0.07 in 0 W/m2
18:40 47.1 °F 40.3 °F 29.9 in SW 19.7 mph 31.1 mph 77% 0.08 in 0 W/m2
18:45 45.7 °F 40.5 °F 29.9 in SW 13.6 mph 29.8 mph 82% 0.08 in 0 W/m2
18:50 45.3 °F 40.3 °F 29.9 in SSW 13 mph 29.8 mph 82% 0.09 in 0 W/m2
18:55 45.7 °F 40.3 °F 29.9 in SSW 11.4 mph 21.3 mph 81% 0.08 in 0 W/m2
19:00 45.9 °F 40.6 °F 29.9 in SW 10.7 mph 21.3 mph 82% 0.07 in 0 W/m2
19:05 45.7 °F 40.5 °F 29.9 in SW 22.8 mph 29.8 mph 82% 0.06 in 0 W/m2
19:10 45 °F 39.6 °F 29.9 in SW 14.5 mph 29.8 mph 81% 0.06 in 0 W/m2
19:15 44.8 °F 39.9 °F 29.9 in WSW 11.4 mph 26.6 mph 83% 0.04 in 0 W/m2
19:20 45.1 °F 40.3 °F 29.9 in WSW 10.7 mph 19 mph 83% 0.02 in 0 W/m2
19:25 45.9 °F 40.6 °F 29.9 in WSW 11.4 mph 21.3 mph 82% 0.02 in 0 W/m2
19:30 46.4 °F 39.6 °F 29.9 in WSW 12.1 mph 22.8 mph 77% 0.02 in 0 W/m2
19:35 46.8 °F 39.6 °F 29.9 in SW 13 mph 24.4 mph 76% 0.02 in 0 W/m2
19:40 46.8 °F 39.4 °F 29.9 in SW 16.8 mph 26.6 mph 75% 0.01 in 0 W/m2
19:45 46.6 °F 39 °F 29.9 in WSW 21.3 mph 27.3 mph 75% 0.01 in 0 W/m2
19:50 46.6 °F 39.4 °F 29.9 in WSW 15.2 mph 27.3 mph 76% 0 in 0 W/m2
19:55 46.2 °F 39.4 °F 29.9 in SW 13.6 mph 27.3 mph 77% 0 in 0 W/m2
20:00 45.7 °F 39.9 °F 29.9 in SW 12.1 mph 27.3 mph 80% 0 in 0 W/m2
20:05 45.7 °F 39.9 °F 29.9 in SW 13.6 mph 22.8 mph 80% 0 in 0 W/m2
20:10 45.7 °F 39.9 °F 29.9 in SW 15.2 mph 22.8 mph 80% 0.01 in 0 W/m2
20:15 45.9 °F 39.4 °F 29.9 in SW 13 mph 25.1 mph 78% 0.01 in 0 W/m2
20:20 46 °F 39.6 °F 29.9 in WSW 19.7 mph 28.9 mph 78% 0.01 in 0 W/m2
20:25 45.7 °F 38.7 °F 29.9 in SW 17.4 mph 29.8 mph 76% 0.01 in 0 W/m2
20:30 45.7 °F 38.8 °F 29.9 in SW 22.1 mph 34.9 mph 77% 0.01 in 0 W/m2
20:35 45.5 °F 39 °F 29.9 in SW 17.4 mph 34.9 mph 78% 0.01 in 0 W/m2
20:40 45.3 °F 38.8 °F 29.9 in SW 13.6 mph 33.6 mph 78% 0.01 in 0 W/m2
20:45 45.3 °F 39.2 °F 29.9 in SW 23.5 mph 31.1 mph 79% 0.01 in 0 W/m2
20:50 45 °F 38.5 °F 29.9 in SW 14.5 mph 31.1 mph 78% 0.01 in 0 W/m2
20:55 45 °F 38.8 °F 30 in SW 9.8 mph 31.1 mph 79% 0.01 in 0 W/m2
21:00 45.1 °F 39.7 °F 30 in SW 12.1 mph 25.1 mph 81% 0.01 in 0 W/m2
21:05 45 °F 38.8 °F 29.9 in SW 12.1 mph 25.1 mph 79% 0.01 in 0 W/m2
21:10 45 °F 38.1 °F 29.9 in SW 13.6 mph 22.8 mph 77% 0 in 0 W/m2
21:15 45.1 °F 37.9 °F 29.9 in SW 11.4 mph 22.8 mph 76% 0 in 0 W/m2
21:20 45.1 °F 37.8 °F 30 in WSW 13 mph 21.3 mph 75% 0 in 0 W/m2
21:25 45.5 °F 37.8 °F 30 in SW 13 mph 22.1 mph 74% 0 in 0 W/m2
21:35 44.8 °F 37.2 °F 30 in SW 13 mph 26.6 mph 75% 0 in 0 W/m2
21:40 44.4 °F 38.3 °F 30 in SW 13 mph 22.8 mph 79% 0 in 0 W/m2
21:45 44.8 °F 37.2 °F 30 in SW 15.2 mph 28.9 mph 75% 0 in 0 W/m2
21:50 45.1 °F 37.4 °F 30 in SW 12.1 mph 28.9 mph 74% 0 in 0 W/m2
21:56 45 °F 36.9 °F 30 in WSW 14.5 mph 25.1 mph 73% 0 in 0 W/m2
22:01 45 °F 36.9 °F 30 in WSW 11.4 mph 20.6 mph 73% 0 in 0 W/m2
22:06 45.1 °F 37 °F 30 in SW 12.1 mph 25.1 mph 73% 0 in 0 W/m2
22:11 45.1 °F 37 °F 30 in SW 12.1 mph 25.1 mph 73% 0 in 0 W/m2
22:16 45.1 °F 36.7 °F 30 in WSW 10.7 mph 25.1 mph 72% 0 in 0 W/m2
22:21 45.1 °F 36.7 °F 30 in WSW 12.1 mph 25.1 mph 72% 0 in 0 W/m2
22:26 45 °F 36.5 °F 30 in WSW 13.6 mph 22.8 mph 72% 0.01 in 0 W/m2
22:31 45 °F 36.5 °F 30 in West 12.1 mph 22.8 mph 72% 0.01 in 0 W/m2
22:36 45 °F 36.5 °F 30 in West 17.4 mph 25.1 mph 72% 0.01 in 0 W/m2
22:41 45.1 °F 35.6 °F 30 in WSW 13.6 mph 25.1 mph 69% 0.01 in 0 W/m2
22:46 45 °F 35.8 °F 30 in SW 15.2 mph 24.4 mph 70% 0.01 in 0 W/m2
22:51 45 °F 35.8 °F 30 in SW 15.2 mph 24.4 mph 70% 0.01 in 0 W/m2
23:10 44.8 °F 36.3 °F 30 in WSW 16.8 mph 29.8 mph 72% 0.01 in 0 W/m2
23:15 45 °F 36.5 °F 30 in WSW 19.7 mph 32 mph 72% 0.01 in 0 W/m2
23:20 44.8 °F 36 °F 30 in SW 17.4 mph 32 mph 71% 0.01 in 0 W/m2
23:25 44.6 °F 36.1 °F 30 in WSW 10.7 mph 29.8 mph 72% 0 in 0 W/m2
23:30 44.6 °F 36.1 °F 30 in SW 17.4 mph 25.1 mph 72% 0 in 0 W/m2
23:35 44.4 °F 36 °F 30 in SW 15.9 mph 25.1 mph 72% 0 in 0 W/m2
23:40 44.2 °F 35.8 °F 30 in SW 11.4 mph 24.4 mph 72% 0 in 0 W/m2
23:45 44.1 °F 35.6 °F 30 in WSW 15.9 mph 25.1 mph 72% 0 in 0 W/m2
23:50 44.2 °F 35.8 °F 30 in SW 13.6 mph 25.9 mph 72% 0 in 0 W/m2
Northern Hawkes Bay. New Zealand Historic Data
Compliments of Weather Underground - 2.25 mb